Skip Navigation LinksHome page > Weather > Current weather Skip Navigation Links

Current Weather

Honolulu Intl, Honolulu

For information only: do not use for flight planning or navigation.
Latest weather
Observation time Wednesday, July 29, 2015 4:53 PM HST
Local time Wednesday, July 29, 2015 6:01 PM HST
Flight conditions Visual Meteorological Conditions
Winds
Wind direction East-Northeast (60°)
Wind speed 15 mph
Wind gusting to 23 mph
Visibility 10 mi.
Sky condition
Ceiling unlimited
Cloud layer few clouds 3,100 ft.
Cloud layer scattered clouds 6,000 ft.
Temperature 87°F
Dewpoint 70°F
Altimeter 29.89 in.Hg
Pressure change last 3 hours0.04 in.Hg
Pressure falling more slowly
Derived measurements
Relative humidity 57%
Heat index 92°F
Density altitude 2172 ft.
Sea-level pressure 29.88 in.Hg
Remarks
Automated weather observing station with precipitation discriminator.
METAR PHNL 300253Z 06013G20KT 10SM FEW031 SCT060 31/21 A2989 RMK AO2 SLP120 T03060211 56013

Settings

Location code

InnerDrive.Weather 4.0.5567.0 Release CLR 4.0.30319.34014
Copyright ©2015 Inner Drive Technology. All rights reserved. Portions Copyright ©1986-2015 David Braverman.

Find weather

Site navigation


Skip Navigation Links

Place info

Page info

PayPal - The safer, easier way to pay online!

Return home.

Copyright ©2015 Inner Drive Technology. Purveyors of fine, hand-crafted computer software. Page printed 2015-07-30T04:02:00 UTC.